sensor_id;sensor_type;location;lat;lon;timestamp;P1;durP1;ratioP1;P2;durP2;ratioP2
67372;SDS011;54257;54.496;18.412;2023-02-15T00:00:04;11.80;;;8.00;;
67372;SDS011;54257;54.496;18.412;2023-02-15T00:02:52;13.50;;;8.10;;
67372;SDS011;54257;54.496;18.412;2023-02-15T00:05:19;12.00;;;7.60;;
67372;SDS011;54257;54.496;18.412;2023-02-15T00:07:46;13.40;;;8.90;;
67372;SDS011;54257;54.496;18.412;2023-02-15T00:10:13;10.50;;;8.20;;
67372;SDS011;54257;54.496;18.412;2023-02-15T00:12:41;12.10;;;8.20;;
67372;SDS011;54257;54.496;18.412;2023-02-15T00:15:12;14.00;;;7.60;;
67372;SDS011;54257;54.496;18.412;2023-02-15T00:17:39;11.70;;;7.50;;
67372;SDS011;54257;54.496;18.412;2023-02-15T00:20:06;9.00;;;7.10;;
67372;SDS011;54257;54.496;18.412;2023-02-15T00:22:34;11.50;;;7.70;;
67372;SDS011;54257;54.496;18.412;2023-02-15T00:25:02;9.00;;;7.70;;
67372;SDS011;54257;54.496;18.412;2023-02-15T00:27:30;10.30;;;6.60;;
67372;SDS011;54257;54.496;18.412;2023-02-15T00:29:57;10.80;;;7.70;;
67372;SDS011;54257;54.496;18.412;2023-02-15T00:32:24;9.70;;;6.70;;
67372;SDS011;54257;54.496;18.412;2023-02-15T00:34:51;9.70;;;6.80;;
67372;SDS011;54257;54.496;18.412;2023-02-15T00:37:18;10.20;;;7.50;;
67372;SDS011;54257;54.496;18.412;2023-02-15T00:39:45;12.60;;;7.10;;
67372;SDS011;54257;54.496;18.412;2023-02-15T00:42:12;8.90;;;7.30;;
67372;SDS011;54257;54.496;18.412;2023-02-15T00:44:40;11.60;;;8.10;;
67372;SDS011;54257;54.496;18.412;2023-02-15T00:47:07;8.80;;;6.50;;
67372;SDS011;54257;54.496;18.412;2023-02-15T00:49:36;7.80;;;6.30;;
67372;SDS011;54257;54.496;18.412;2023-02-15T00:52:03;11.30;;;6.30;;
67372;SDS011;54257;54.496;18.412;2023-02-15T00:54:30;9.70;;;6.40;;
67372;SDS011;54257;54.496;18.412;2023-02-15T00:56:57;9.00;;;6.60;;
67372;SDS011;54257;54.496;18.412;2023-02-15T00:59:24;9.30;;;6.90;;
67372;SDS011;54257;54.496;18.412;2023-02-15T01:01:51;9.40;;;7.00;;
67372;SDS011;54257;54.496;18.412;2023-02-15T01:04:18;12.50;;;7.10;;
67372;SDS011;54257;54.496;18.412;2023-02-15T01:06:44;10.60;;;6.80;;
67372;SDS011;54257;54.496;18.412;2023-02-15T01:09:12;10.70;;;7.30;;
67372;SDS011;54257;54.496;18.412;2023-02-15T01:11:40;9.40;;;7.00;;
67372;SDS011;54257;54.496;18.412;2023-02-15T01:14:08;8.20;;;6.90;;
67372;SDS011;54257;54.496;18.412;2023-02-15T01:16:39;11.00;;;7.50;;
67372;SDS011;54257;54.496;18.412;2023-02-15T01:19:06;9.20;;;7.10;;
67372;SDS011;54257;54.496;18.412;2023-02-15T01:21:33;8.70;;;6.70;;
67372;SDS011;54257;54.496;18.412;2023-02-15T01:24:01;10.30;;;7.30;;
67372;SDS011;54257;54.496;18.412;2023-02-15T01:26:28;8.30;;;6.50;;
67372;SDS011;54257;54.496;18.412;2023-02-15T01:28:56;9.60;;;7.20;;
67372;SDS011;54257;54.496;18.412;2023-02-15T01:31:24;8.10;;;6.40;;
67372;SDS011;54257;54.496;18.412;2023-02-15T01:33:51;9.70;;;6.40;;
67372;SDS011;54257;54.496;18.412;2023-02-15T01:36:18;7.30;;;6.40;;
67372;SDS011;54257;54.496;18.412;2023-02-15T01:38:46;7.80;;;6.70;;
67372;SDS011;54257;54.496;18.412;2023-02-15T01:41:13;8.70;;;6.40;;
67372;SDS011;54257;54.496;18.412;2023-02-15T01:43:48;9.80;;;6.60;;
67372;SDS011;54257;54.496;18.412;2023-02-15T01:46:19;10.90;;;6.70;;
67372;SDS011;54257;54.496;18.412;2023-02-15T01:48:50;8.90;;;6.60;;
67372;SDS011;54257;54.496;18.412;2023-02-15T01:51:23;10.30;;;6.40;;
67372;SDS011;54257;54.496;18.412;2023-02-15T01:53:59;8.90;;;6.40;;
67372;SDS011;54257;54.496;18.412;2023-02-15T01:56:33;13.20;;;6.60;;
67372;SDS011;54257;54.496;18.412;2023-02-15T01:59:04;11.90;;;7.70;;
67372;SDS011;54257;54.496;18.412;2023-02-15T02:01:35;9.40;;;7.00;;
67372;SDS011;54257;54.496;18.412;2023-02-15T02:06:38;9.50;;;7.00;;
67372;SDS011;54257;54.496;18.412;2023-02-15T02:09:06;11.40;;;6.90;;
67372;SDS011;54257;54.496;18.412;2023-02-15T02:11:34;21.00;;;7.50;;
67372;SDS011;54257;54.496;18.412;2023-02-15T02:14:02;12.30;;;8.30;;
67372;SDS011;54257;54.496;18.412;2023-02-15T02:19:39;10.70;;;7.70;;
67372;SDS011;54257;54.496;18.412;2023-02-15T02:27:37;8.60;;;5.90;;
67372;SDS011;54257;54.496;18.412;2023-02-15T02:30:20;10.20;;;7.00;;
67372;SDS011;54257;54.496;18.412;2023-02-15T02:33:24;10.60;;;6.60;;
67372;SDS011;54257;54.496;18.412;2023-02-15T02:36:15;11.50;;;7.10;;
67372;SDS011;54257;54.496;18.412;2023-02-15T02:45:13;9.50;;;7.10;;
67372;SDS011;54257;54.496;18.412;2023-02-15T02:48:09;11.20;;;6.90;;
67372;SDS011;54257;54.496;18.412;2023-02-15T02:50:42;10.60;;;6.20;;
67372;SDS011;54257;54.496;18.412;2023-02-15T02:53:09;10.70;;;7.10;;
67372;SDS011;54257;54.496;18.412;2023-02-15T02:55:53;11.70;;;7.70;;
67372;SDS011;54257;54.496;18.412;2023-02-15T02:58:28;10.10;;;6.60;;
67372;SDS011;54257;54.496;18.412;2023-02-15T03:01:03;10.80;;;7.20;;
67372;SDS011;54257;54.496;18.412;2023-02-15T03:03:44;12.00;;;7.50;;
67372;SDS011;54257;54.496;18.412;2023-02-15T03:06:23;10.40;;;6.90;;
67372;SDS011;54257;54.496;18.412;2023-02-15T03:08:57;10.80;;;8.30;;
67372;SDS011;54257;54.496;18.412;2023-02-15T03:11:28;11.20;;;7.10;;
67372;SDS011;54257;54.496;18.412;2023-02-15T03:13:56;11.30;;;8.20;;
67372;SDS011;54257;54.496;18.412;2023-02-15T03:16:24;12.50;;;8.70;;
67372;SDS011;54257;54.496;18.412;2023-02-15T03:19:01;14.30;;;9.30;;
67372;SDS011;54257;54.496;18.412;2023-02-15T03:24:07;10.70;;;8.80;;
67372;SDS011;54257;54.496;18.412;2023-02-15T03:26:39;11.50;;;8.90;;
67372;SDS011;54257;54.496;18.412;2023-02-15T03:29:11;11.40;;;8.70;;
67372;SDS011;54257;54.496;18.412;2023-02-15T03:31:41;11.50;;;8.10;;
67372;SDS011;54257;54.496;18.412;2023-02-15T03:34:12;14.10;;;8.40;;
67372;SDS011;54257;54.496;18.412;2023-02-15T03:39:23;12.40;;;8.60;;
67372;SDS011;54257;54.496;18.412;2023-02-15T03:42:14;13.10;;;8.10;;
67372;SDS011;54257;54.496;18.412;2023-02-15T03:44:54;14.40;;;9.80;;
67372;SDS011;54257;54.496;18.412;2023-02-15T03:47:27;16.10;;;9.60;;
67372;SDS011;54257;54.496;18.412;2023-02-15T03:50:02;15.50;;;9.70;;
67372;SDS011;54257;54.496;18.412;2023-02-15T03:52:57;16.80;;;10.10;;
67372;SDS011;54257;54.496;18.412;2023-02-15T03:55:27;16.20;;;9.40;;
67372;SDS011;54257;54.496;18.412;2023-02-15T03:57:55;16.90;;;10.10;;
67372;SDS011;54257;54.496;18.412;2023-02-15T04:00:42;15.50;;;10.40;;
67372;SDS011;54257;54.496;18.412;2023-02-15T04:03:41;15.50;;;9.80;;
67372;SDS011;54257;54.496;18.412;2023-02-15T04:06:12;13.80;;;10.30;;
67372;SDS011;54257;54.496;18.412;2023-02-15T04:08:39;18.70;;;11.40;;
67372;SDS011;54257;54.496;18.412;2023-02-15T04:11:24;16.20;;;9.70;;
67372;SDS011;54257;54.496;18.412;2023-02-15T04:13:52;14.80;;;10.20;;
67372;SDS011;54257;54.496;18.412;2023-02-15T04:16:23;15.40;;;10.30;;
67372;SDS011;54257;54.496;18.412;2023-02-15T04:18:51;15.70;;;10.60;;
67372;SDS011;54257;54.496;18.412;2023-02-15T04:21:37;15.00;;;9.80;;
67372;SDS011;54257;54.496;18.412;2023-02-15T04:24:22;17.80;;;10.90;;
67372;SDS011;54257;54.496;18.412;2023-02-15T04:27:08;13.70;;;9.20;;
67372;SDS011;54257;54.496;18.412;2023-02-15T04:29:35;14.90;;;9.30;;
67372;SDS011;54257;54.496;18.412;2023-02-15T04:32:02;14.60;;;9.20;;
67372;SDS011;54257;54.496;18.412;2023-02-15T04:34:30;15.00;;;10.10;;
67372;SDS011;54257;54.496;18.412;2023-02-15T04:36:57;17.20;;;11.10;;
67372;SDS011;54257;54.496;18.412;2023-02-15T04:39:24;13.90;;;10.80;;
67372;SDS011;54257;54.496;18.412;2023-02-15T04:41:51;16.60;;;10.20;;
67372;SDS011;54257;54.496;18.412;2023-02-15T04:44:18;15.90;;;10.50;;
67372;SDS011;54257;54.496;18.412;2023-02-15T04:46:45;15.10;;;10.60;;
67372;SDS011;54257;54.496;18.412;2023-02-15T04:49:12;17.70;;;10.90;;
67372;SDS011;54257;54.496;18.412;2023-02-15T04:51:39;17.00;;;10.90;;
67372;SDS011;54257;54.496;18.412;2023-02-15T04:54:06;17.20;;;12.00;;
67372;SDS011;54257;54.496;18.412;2023-02-15T04:56:33;16.20;;;10.60;;
67372;SDS011;54257;54.496;18.412;2023-02-15T04:59:02;17.30;;;10.90;;
67372;SDS011;54257;54.496;18.412;2023-02-15T05:01:29;14.80;;;9.90;;
67372;SDS011;54257;54.496;18.412;2023-02-15T05:03:56;16.30;;;10.00;;
67372;SDS011;54257;54.496;18.412;2023-02-15T05:06:23;14.00;;;9.70;;
67372;SDS011;54257;54.496;18.412;2023-02-15T05:08:51;14.00;;;9.60;;
67372;SDS011;54257;54.496;18.412;2023-02-15T05:11:18;14.60;;;10.70;;
67372;SDS011;54257;54.496;18.412;2023-02-15T05:13:45;13.10;;;10.10;;
67372;SDS011;54257;54.496;18.412;2023-02-15T05:16:12;16.80;;;10.00;;
67372;SDS011;54257;54.496;18.412;2023-02-15T05:18:39;13.80;;;9.60;;
67372;SDS011;54257;54.496;18.412;2023-02-15T05:21:07;17.30;;;10.30;;
67372;SDS011;54257;54.496;18.412;2023-02-15T05:23:35;17.90;;;10.10;;
67372;SDS011;54257;54.496;18.412;2023-02-15T05:26:03;13.60;;;9.80;;
67372;SDS011;54257;54.496;18.412;2023-02-15T05:28:48;12.10;;;8.90;;
67372;SDS011;54257;54.496;18.412;2023-02-15T05:31:18;13.60;;;9.50;;
67372;SDS011;54257;54.496;18.412;2023-02-15T05:33:46;14.10;;;9.80;;
67372;SDS011;54257;54.496;18.412;2023-02-15T05:36:17;11.50;;;8.40;;
67372;SDS011;54257;54.496;18.412;2023-02-15T05:38:44;11.60;;;8.60;;
67372;SDS011;54257;54.496;18.412;2023-02-15T05:41:11;10.90;;;8.60;;
67372;SDS011;54257;54.496;18.412;2023-02-15T05:43:39;14.20;;;9.40;;
67372;SDS011;54257;54.496;18.412;2023-02-15T05:46:07;16.00;;;8.80;;
67372;SDS011;54257;54.496;18.412;2023-02-15T05:48:36;12.90;;;9.60;;
67372;SDS011;54257;54.496;18.412;2023-02-15T05:51:08;13.10;;;9.20;;
67372;SDS011;54257;54.496;18.412;2023-02-15T05:53:39;16.00;;;9.30;;
67372;SDS011;54257;54.496;18.412;2023-02-15T05:56:07;11.70;;;8.10;;
67372;SDS011;54257;54.496;18.412;2023-02-15T05:58:39;11.00;;;7.90;;
67372;SDS011;54257;54.496;18.412;2023-02-15T06:01:11;12.20;;;8.40;;
67372;SDS011;54257;54.496;18.412;2023-02-15T06:03:48;9.40;;;7.80;;
67372;SDS011;54257;54.496;18.412;2023-02-15T06:06:16;12.10;;;7.50;;
67372;SDS011;54257;54.496;18.412;2023-02-15T06:08:46;11.00;;;8.40;;
67372;SDS011;54257;54.496;18.412;2023-02-15T06:11:13;11.90;;;7.90;;
67372;SDS011;54257;54.496;18.412;2023-02-15T06:13:40;11.00;;;7.50;;
67372;SDS011;54257;54.496;18.412;2023-02-15T06:16:08;12.40;;;7.20;;
67372;SDS011;54257;54.496;18.412;2023-02-15T06:18:35;10.80;;;8.50;;
67372;SDS011;54257;54.496;18.412;2023-02-15T06:21:02;12.30;;;8.50;;
67372;SDS011;54257;54.496;18.412;2023-02-15T06:23:29;13.00;;;8.50;;
67372;SDS011;54257;54.496;18.412;2023-02-15T06:25:56;13.80;;;9.00;;
67372;SDS011;54257;54.496;18.412;2023-02-15T06:28:25;13.30;;;9.30;;
67372;SDS011;54257;54.496;18.412;2023-02-15T06:30:53;13.40;;;8.80;;
67372;SDS011;54257;54.496;18.412;2023-02-15T06:33:19;11.80;;;8.70;;
67372;SDS011;54257;54.496;18.412;2023-02-15T06:35:46;18.20;;;9.80;;
67372;SDS011;54257;54.496;18.412;2023-02-15T06:38:13;17.60;;;9.40;;
67372;SDS011;54257;54.496;18.412;2023-02-15T06:40:40;22.70;;;11.20;;
67372;SDS011;54257;54.496;18.412;2023-02-15T06:43:08;16.00;;;9.70;;
67372;SDS011;54257;54.496;18.412;2023-02-15T06:45:36;15.90;;;9.20;;
67372;SDS011;54257;54.496;18.412;2023-02-15T06:48:03;13.70;;;9.80;;
67372;SDS011;54257;54.496;18.412;2023-02-15T06:50:33;13.60;;;8.40;;
67372;SDS011;54257;54.496;18.412;2023-02-15T06:53:00;15.30;;;9.40;;
67372;SDS011;54257;54.496;18.412;2023-02-15T06:55:29;14.10;;;9.30;;
67372;SDS011;54257;54.496;18.412;2023-02-15T06:57:59;17.50;;;10.20;;
67372;SDS011;54257;54.496;18.412;2023-02-15T07:00:26;17.30;;;10.10;;
67372;SDS011;54257;54.496;18.412;2023-02-15T07:02:53;16.80;;;9.50;;
67372;SDS011;54257;54.496;18.412;2023-02-15T07:05:22;15.60;;;8.50;;
67372;SDS011;54257;54.496;18.412;2023-02-15T07:07:50;22.00;;;11.90;;
67372;SDS011;54257;54.496;18.412;2023-02-15T07:10:18;17.30;;;10.40;;
67372;SDS011;54257;54.496;18.412;2023-02-15T07:12:45;15.90;;;9.70;;
67372;SDS011;54257;54.496;18.412;2023-02-15T07:15:14;27.30;;;13.70;;
67372;SDS011;54257;54.496;18.412;2023-02-15T07:17:43;27.80;;;13.20;;
67372;SDS011;54257;54.496;18.412;2023-02-15T07:20:12;19.60;;;12.30;;
67372;SDS011;54257;54.496;18.412;2023-02-15T07:22:42;17.30;;;10.80;;
67372;SDS011;54257;54.496;18.412;2023-02-15T07:25:09;16.00;;;9.80;;
67372;SDS011;54257;54.496;18.412;2023-02-15T07:27:38;15.90;;;10.60;;
67372;SDS011;54257;54.496;18.412;2023-02-15T07:30:07;16.20;;;11.20;;
67372;SDS011;54257;54.496;18.412;2023-02-15T07:32:36;15.60;;;11.40;;
67372;SDS011;54257;54.496;18.412;2023-02-15T07:35:03;17.20;;;11.00;;
67372;SDS011;54257;54.496;18.412;2023-02-15T07:37:33;18.00;;;11.40;;
67372;SDS011;54257;54.496;18.412;2023-02-15T07:40:00;19.40;;;11.30;;
67372;SDS011;54257;54.496;18.412;2023-02-15T07:42:30;14.50;;;10.70;;
67372;SDS011;54257;54.496;18.412;2023-02-15T07:44:57;15.30;;;10.00;;
67372;SDS011;54257;54.496;18.412;2023-02-15T07:47:24;15.70;;;10.40;;
67372;SDS011;54257;54.496;18.412;2023-02-15T07:49:52;20.60;;;11.20;;
67372;SDS011;54257;54.496;18.412;2023-02-15T07:52:20;15.70;;;10.70;;
67372;SDS011;54257;54.496;18.412;2023-02-15T07:54:47;16.50;;;9.90;;
67372;SDS011;54257;54.496;18.412;2023-02-15T07:57:13;14.30;;;10.20;;
67372;SDS011;54257;54.496;18.412;2023-02-15T07:59:41;14.00;;;10.00;;
67372;SDS011;54257;54.496;18.412;2023-02-15T08:02:09;13.20;;;9.20;;
67372;SDS011;54257;54.496;18.412;2023-02-15T08:04:37;14.30;;;10.10;;
67372;SDS011;54257;54.496;18.412;2023-02-15T08:07:08;14.30;;;10.40;;
67372;SDS011;54257;54.496;18.412;2023-02-15T08:09:35;13.80;;;9.70;;
67372;SDS011;54257;54.496;18.412;2023-02-15T08:12:02;14.90;;;10.60;;
67372;SDS011;54257;54.496;18.412;2023-02-15T08:14:31;17.80;;;10.70;;
67372;SDS011;54257;54.496;18.412;2023-02-15T08:16:59;13.80;;;10.50;;
67372;SDS011;54257;54.496;18.412;2023-02-15T08:19:32;14.00;;;11.10;;
67372;SDS011;54257;54.496;18.412;2023-02-15T08:22:02;18.20;;;11.80;;
67372;SDS011;54257;54.496;18.412;2023-02-15T08:24:33;15.90;;;11.50;;
67372;SDS011;54257;54.496;18.412;2023-02-15T08:27:06;15.90;;;9.70;;
67372;SDS011;54257;54.496;18.412;2023-02-15T08:29:35;17.60;;;11.40;;
67372;SDS011;54257;54.496;18.412;2023-02-15T08:32:08;17.30;;;11.00;;
67372;SDS011;54257;54.496;18.412;2023-02-15T08:34:39;16.20;;;10.80;;
67372;SDS011;54257;54.496;18.412;2023-02-15T08:37:08;17.80;;;10.40;;
67372;SDS011;54257;54.496;18.412;2023-02-15T08:39:35;17.20;;;11.00;;
67372;SDS011;54257;54.496;18.412;2023-02-15T08:42:03;14.80;;;10.70;;
67372;SDS011;54257;54.496;18.412;2023-02-15T08:44:30;16.20;;;11.20;;
67372;SDS011;54257;54.496;18.412;2023-02-15T08:46:57;18.40;;;11.10;;
67372;SDS011;54257;54.496;18.412;2023-02-15T08:49:29;15.70;;;10.10;;
67372;SDS011;54257;54.496;18.412;2023-02-15T08:51:56;18.50;;;10.90;;
67372;SDS011;54257;54.496;18.412;2023-02-15T08:54:23;15.40;;;11.00;;
67372;SDS011;54257;54.496;18.412;2023-02-15T08:56:50;17.80;;;11.90;;
67372;SDS011;54257;54.496;18.412;2023-02-15T08:59:21;20.60;;;12.80;;
67372;SDS011;54257;54.496;18.412;2023-02-15T09:01:50;17.60;;;13.20;;
67372;SDS011;54257;54.496;18.412;2023-02-15T09:04:18;18.50;;;12.10;;
67372;SDS011;54257;54.496;18.412;2023-02-15T09:06:47;16.80;;;11.70;;
67372;SDS011;54257;54.496;18.412;2023-02-15T09:09:15;17.10;;;12.50;;
67372;SDS011;54257;54.496;18.412;2023-02-15T09:11:44;19.40;;;12.00;;
67372;SDS011;54257;54.496;18.412;2023-02-15T09:14:14;20.50;;;13.90;;
67372;SDS011;54257;54.496;18.412;2023-02-15T09:16:44;21.50;;;13.50;;
67372;SDS011;54257;54.496;18.412;2023-02-15T09:19:15;21.40;;;14.50;;
67372;SDS011;54257;54.496;18.412;2023-02-15T09:21:44;23.30;;;15.10;;
67372;SDS011;54257;54.496;18.412;2023-02-15T09:24:12;19.90;;;13.40;;
67372;SDS011;54257;54.496;18.412;2023-02-15T09:26:42;21.20;;;14.00;;
67372;SDS011;54257;54.496;18.412;2023-02-15T09:29:11;21.50;;;14.20;;
67372;SDS011;54257;54.496;18.412;2023-02-15T09:31:43;20.20;;;13.10;;
67372;SDS011;54257;54.496;18.412;2023-02-15T09:34:15;18.60;;;12.20;;
67372;SDS011;54257;54.496;18.412;2023-02-15T09:36:45;18.70;;;12.90;;
67372;SDS011;54257;54.496;18.412;2023-02-15T10:10:02;18.10;;;11.70;;
67372;SDS011;54257;54.496;18.412;2023-02-15T10:18:34;23.30;;;13.90;;
67372;SDS011;54257;54.496;18.412;2023-02-15T10:21:08;21.40;;;13.10;;
67372;SDS011;54257;54.496;18.412;2023-02-15T10:26:44;18.10;;;12.80;;
67372;SDS011;54257;54.496;18.412;2023-02-15T10:29:20;18.60;;;13.20;;
67372;SDS011;54257;54.496;18.412;2023-02-15T10:32:21;20.70;;;13.20;;
67372;SDS011;54257;54.496;18.412;2023-02-15T10:35:00;25.50;;;14.20;;
67372;SDS011;54257;54.496;18.412;2023-02-15T10:49:21;18.30;;;12.90;;
67372;SDS011;54257;54.496;18.412;2023-02-15T10:54:49;22.80;;;13.20;;
67372;SDS011;54257;54.496;18.412;2023-02-15T11:06:23;26.40;;;14.90;;
67372;SDS011;54257;54.496;18.412;2023-02-15T11:08:59;22.70;;;15.40;;
67372;SDS011;54257;54.496;18.412;2023-02-15T11:11:32;24.90;;;15.30;;
67372;SDS011;54257;54.496;18.412;2023-02-15T11:14:05;23.10;;;14.20;;
67372;SDS011;54257;54.496;18.412;2023-02-15T11:16:43;20.30;;;14.50;;
67372;SDS011;54257;54.496;18.412;2023-02-15T11:19:22;19.80;;;13.70;;
67372;SDS011;54257;54.496;18.412;2023-02-15T11:21:57;20.30;;;13.40;;
67372;SDS011;54257;54.496;18.412;2023-02-15T11:24:29;19.20;;;14.20;;
67372;SDS011;54257;54.496;18.412;2023-02-15T11:32:35;24.60;;;15.50;;
67372;SDS011;54257;54.496;18.412;2023-02-15T11:45:58;26.70;;;17.90;;
67372;SDS011;54257;54.496;18.412;2023-02-15T11:48:25;29.30;;;17.90;;
67372;SDS011;54257;54.496;18.412;2023-02-15T11:50:53;29.20;;;18.10;;
67372;SDS011;54257;54.496;18.412;2023-02-15T11:53:21;27.60;;;17.50;;
67372;SDS011;54257;54.496;18.412;2023-02-15T11:55:54;27.30;;;18.30;;
67372;SDS011;54257;54.496;18.412;2023-02-15T12:01:45;25.90;;;17.10;;
67372;SDS011;54257;54.496;18.412;2023-02-15T12:04:22;22.20;;;16.00;;
67372;SDS011;54257;54.496;18.412;2023-02-15T12:06:58;28.50;;;18.30;;
67372;SDS011;54257;54.496;18.412;2023-02-15T12:09:40;30.60;;;19.20;;
67372;SDS011;54257;54.496;18.412;2023-02-15T12:12:31;29.40;;;18.00;;
67372;SDS011;54257;54.496;18.412;2023-02-15T12:15:00;27.70;;;18.80;;
67372;SDS011;54257;54.496;18.412;2023-02-15T12:17:35;32.60;;;20.30;;
67372;SDS011;54257;54.496;18.412;2023-02-15T12:20:24;28.30;;;18.60;;
67372;SDS011;54257;54.496;18.412;2023-02-15T12:23:01;27.60;;;18.60;;
67372;SDS011;54257;54.496;18.412;2023-02-15T12:25:40;31.00;;;18.50;;
67372;SDS011;54257;54.496;18.412;2023-02-15T12:31:21;27.50;;;17.70;;
67372;SDS011;54257;54.496;18.412;2023-02-15T12:34:03;25.30;;;16.30;;
67372;SDS011;54257;54.496;18.412;2023-02-15T12:36:45;25.10;;;16.60;;
67372;SDS011;54257;54.496;18.412;2023-02-15T12:39:24;23.10;;;16.70;;
67372;SDS011;54257;54.496;18.412;2023-02-15T12:44:22;21.40;;;15.80;;
67372;SDS011;54257;54.496;18.412;2023-02-15T12:49:43;27.30;;;17.40;;
67372;SDS011;54257;54.496;18.412;2023-02-15T12:54:46;25.60;;;17.40;;
67372;SDS011;54257;54.496;18.412;2023-02-15T12:57:20;28.00;;;18.10;;
67372;SDS011;54257;54.496;18.412;2023-02-15T12:59:58;26.00;;;18.50;;
67372;SDS011;54257;54.496;18.412;2023-02-15T13:02:53;26.20;;;18.30;;
67372;SDS011;54257;54.496;18.412;2023-02-15T13:05:34;24.80;;;18.10;;
67372;SDS011;54257;54.496;18.412;2023-02-15T13:10:42;31.90;;;18.30;;
67372;SDS011;54257;54.496;18.412;2023-02-15T13:13:26;28.90;;;19.20;;
67372;SDS011;54257;54.496;18.412;2023-02-15T13:15:58;24.50;;;17.90;;
67372;SDS011;54257;54.496;18.412;2023-02-15T13:18:31;23.30;;;17.00;;
67372;SDS011;54257;54.496;18.412;2023-02-15T13:23:42;25.60;;;17.80;;
67372;SDS011;54257;54.496;18.412;2023-02-15T13:26:17;22.30;;;17.20;;
67372;SDS011;54257;54.496;18.412;2023-02-15T13:28:48;26.90;;;18.50;;
67372;SDS011;54257;54.496;18.412;2023-02-15T13:31:20;27.20;;;18.40;;
67372;SDS011;54257;54.496;18.412;2023-02-15T13:33:55;25.20;;;18.10;;
67372;SDS011;54257;54.496;18.412;2023-02-15T13:42:08;28.80;;;19.40;;
67372;SDS011;54257;54.496;18.412;2023-02-15T13:50:15;28.40;;;18.90;;
67372;SDS011;54257;54.496;18.412;2023-02-15T14:01:58;23.10;;;15.80;;
67372;SDS011;54257;54.496;18.412;2023-02-15T14:10:44;22.70;;;15.40;;
67372;SDS011;54257;54.496;18.412;2023-02-15T14:13:31;22.50;;;16.10;;
67372;SDS011;54257;54.496;18.412;2023-02-15T14:16:33;23.40;;;16.20;;
67372;SDS011;54257;54.496;18.412;2023-02-15T14:22:07;27.00;;;18.10;;
67372;SDS011;54257;54.496;18.412;2023-02-15T14:24:45;25.50;;;17.40;;
67372;SDS011;54257;54.496;18.412;2023-02-15T14:30:51;28.70;;;17.70;;
67372;SDS011;54257;54.496;18.412;2023-02-15T14:33:33;23.40;;;16.80;;
67372;SDS011;54257;54.496;18.412;2023-02-15T14:36:17;23.20;;;15.90;;
67372;SDS011;54257;54.496;18.412;2023-02-15T14:41:39;23.70;;;17.00;;
67372;SDS011;54257;54.496;18.412;2023-02-15T14:46:56;23.40;;;17.60;;
67372;SDS011;54257;54.496;18.412;2023-02-15T14:49:31;24.70;;;16.90;;
67372;SDS011;54257;54.496;18.412;2023-02-15T14:52:08;23.60;;;17.30;;
67372;SDS011;54257;54.496;18.412;2023-02-15T15:02:17;23.00;;;16.20;;
67372;SDS011;54257;54.496;18.412;2023-02-15T15:07:22;24.40;;;16.10;;
67372;SDS011;54257;54.496;18.412;2023-02-15T15:10:06;28.00;;;16.20;;
67372;SDS011;54257;54.496;18.412;2023-02-15T15:12:44;21.30;;;15.80;;
67372;SDS011;54257;54.496;18.412;2023-02-15T15:15:15;22.00;;;15.20;;
67372;SDS011;54257;54.496;18.412;2023-02-15T15:35:55;26.60;;;17.80;;
67372;SDS011;54257;54.496;18.412;2023-02-15T15:41:42;28.70;;;17.80;;
67372;SDS011;54257;54.496;18.412;2023-02-15T15:50:14;31.50;;;19.80;;
67372;SDS011;54257;54.496;18.412;2023-02-15T15:52:50;28.20;;;18.30;;
67372;SDS011;54257;54.496;18.412;2023-02-15T15:55:20;27.80;;;19.10;;
67372;SDS011;54257;54.496;18.412;2023-02-15T15:57:55;27.80;;;19.30;;
67372;SDS011;54257;54.496;18.412;2023-02-15T16:00:33;26.60;;;18.40;;
67372;SDS011;54257;54.496;18.412;2023-02-15T16:03:02;28.00;;;18.80;;
67372;SDS011;54257;54.496;18.412;2023-02-15T16:05:36;31.60;;;19.90;;
67372;SDS011;54257;54.496;18.412;2023-02-15T16:08:07;31.80;;;20.70;;
67372;SDS011;54257;54.496;18.412;2023-02-15T16:10:35;31.00;;;20.90;;
67372;SDS011;54257;54.496;18.412;2023-02-15T16:13:04;33.20;;;20.80;;
67372;SDS011;54257;54.496;18.412;2023-02-15T16:15:42;38.60;;;22.80;;
67372;SDS011;54257;54.496;18.412;2023-02-15T16:18:17;32.60;;;21.60;;
67372;SDS011;54257;54.496;18.412;2023-02-15T16:20:54;30.70;;;20.70;;
67372;SDS011;54257;54.496;18.412;2023-02-15T16:28:35;38.00;;;24.50;;
67372;SDS011;54257;54.496;18.412;2023-02-15T16:33:43;44.70;;;25.70;;
67372;SDS011;54257;54.496;18.412;2023-02-15T16:36:33;39.40;;;22.70;;
67372;SDS011;54257;54.496;18.412;2023-02-15T16:41:36;35.30;;;22.40;;
67372;SDS011;54257;54.496;18.412;2023-02-15T16:44:06;33.80;;;22.70;;
67372;SDS011;54257;54.496;18.412;2023-02-15T16:46:40;34.30;;;22.00;;
67372;SDS011;54257;54.496;18.412;2023-02-15T16:49:25;34.80;;;21.60;;
67372;SDS011;54257;54.496;18.412;2023-02-15T16:51:56;32.20;;;20.60;;
67372;SDS011;54257;54.496;18.412;2023-02-15T16:54:27;36.20;;;23.50;;
67372;SDS011;54257;54.496;18.412;2023-02-15T16:56:56;37.60;;;24.10;;
67372;SDS011;54257;54.496;18.412;2023-02-15T16:59:31;40.40;;;25.20;;
67372;SDS011;54257;54.496;18.412;2023-02-15T17:02:32;35.70;;;23.80;;
67372;SDS011;54257;54.496;18.412;2023-02-15T17:07:48;39.00;;;24.90;;
67372;SDS011;54257;54.496;18.412;2023-02-15T17:10:35;40.10;;;24.60;;
67372;SDS011;54257;54.496;18.412;2023-02-15T17:13:16;40.70;;;25.70;;
67372;SDS011;54257;54.496;18.412;2023-02-15T17:16:21;39.60;;;26.00;;
67372;SDS011;54257;54.496;18.412;2023-02-15T17:20:58;38.20;;;25.20;;
67372;SDS011;54257;54.496;18.412;2023-02-15T17:26:01;37.80;;;25.00;;
67372;SDS011;54257;54.496;18.412;2023-02-15T17:28:38;36.00;;;23.20;;
67372;SDS011;54257;54.496;18.412;2023-02-15T17:31:36;43.50;;;25.30;;
67372;SDS011;54257;54.496;18.412;2023-02-15T17:34:03;39.00;;;24.40;;
67372;SDS011;54257;54.496;18.412;2023-02-15T17:36:31;38.30;;;23.80;;
67372;SDS011;54257;54.496;18.412;2023-02-15T17:41:32;39.70;;;24.30;;
67372;SDS011;54257;54.496;18.412;2023-02-15T17:44:01;35.80;;;22.60;;
67372;SDS011;54257;54.496;18.412;2023-02-15T17:46:33;36.30;;;23.70;;
67372;SDS011;54257;54.496;18.412;2023-02-15T17:49:02;38.90;;;23.80;;
67372;SDS011;54257;54.496;18.412;2023-02-15T17:51:30;38.60;;;24.80;;
67372;SDS011;54257;54.496;18.412;2023-02-15T17:54:02;44.50;;;28.00;;
67372;SDS011;54257;54.496;18.412;2023-02-15T17:56:48;43.40;;;26.30;;
67372;SDS011;54257;54.496;18.412;2023-02-15T17:59:15;46.90;;;27.20;;
67372;SDS011;54257;54.496;18.412;2023-02-15T18:01:44;44.00;;;27.80;;
67372;SDS011;54257;54.496;18.412;2023-02-15T18:04:32;49.00;;;29.10;;
67372;SDS011;54257;54.496;18.412;2023-02-15T18:07:21;47.30;;;27.10;;
67372;SDS011;54257;54.496;18.412;2023-02-15T18:10:12;45.20;;;27.50;;
67372;SDS011;54257;54.496;18.412;2023-02-15T18:13:00;48.50;;;31.40;;
67372;SDS011;54257;54.496;18.412;2023-02-15T18:15:28;46.40;;;28.80;;
67372;SDS011;54257;54.496;18.412;2023-02-15T18:17:56;45.00;;;27.90;;
67372;SDS011;54257;54.496;18.412;2023-02-15T18:20:28;48.70;;;30.60;;
67372;SDS011;54257;54.496;18.412;2023-02-15T18:22:59;47.70;;;27.90;;